Time;durP1;ratioP1;P1;durP2;ratioP2;P2;SDS_P1;SDS_P2;PMS_P1;PMS_P2;Temp;Humidity;BMP_temperature;BMP_pressure;BME280_temperature;BME280_humidity;BME280_pressure;Samples;Min_cycle;Max_cycle;Signal;HPM_P1;HPM_P2
2023/01/18 00:01:51;;;;;;;2.83;1.80;;;1.90;83.90;;;;;;5016236;28;20045;-76
2023/01/18 00:04:16;;;;;;;3.78;2.08;;;1.80;83.90;;;;;;4984498;28;20041;-78
2023/01/18 00:06:42;;;;;;;3.42;1.70;;;1.80;83.90;;;;;;5000886;28;20037;-77
2023/01/18 00:09:08;;;;;;;1.98;1.63;;;1.80;83.90;;;;;;4983277;28;20040;-77
2023/01/18 00:11:33;;;;;;;4.35;2.03;;;1.80;83.90;;;;;;4999780;28;20037;-75
2023/01/18 00:14:01;;;;;;;2.15;1.50;;;1.80;83.90;;;;;;5006075;28;20073;-76
2023/01/18 00:16:27;;;;;;;3.13;1.90;;;1.80;83.90;;;;;;5016397;28;20132;-77
2023/01/18 00:18:53;;;;;;;3.03;1.70;;;1.80;84.00;;;;;;5017246;28;20112;-76
2023/01/18 00:21:19;;;;;;;3.55;1.80;;;1.90;84.10;;;;;;5035417;28;20055;-79
2023/01/18 00:23:45;;;;;;;2.20;1.75;;;1.80;84.00;;;;;;5034854;28;20124;-79
2023/01/18 00:26:11;;;;;;;3.10;2.00;;;1.90;84.20;;;;;;5018331;28;20045;-75
2023/01/18 00:28:37;;;;;;;4.60;1.88;;;1.90;84.30;;;;;;5021892;28;20041;-78
2023/01/18 00:31:14;;;;;;;2.17;1.65;;;1.90;84.30;;;;;;5030418;28;20045;-76
2023/01/18 00:33:44;;;;;;;4.18;1.67;;;1.90;84.30;;;;;;5034878;28;20041;-76
2023/01/18 00:36:10;;;;;;;2.88;1.55;;;1.90;84.30;;;;;;5020455;28;20036;-75
2023/01/18 00:38:36;;;;;;;4.85;1.90;;;1.90;84.30;;;;;;5030978;28;20059;-77
2023/01/18 00:41:01;;;;;;;3.25;1.67;;;1.90;84.30;;;;;;5007260;28;20041;-76
2023/01/18 00:43:39;;;;;;;4.82;1.55;;;1.90;84.30;;;;;;5028873;28;20040;-75
2023/01/18 00:46:11;;;;;;;3.65;1.67;;;1.90;84.40;;;;;;5020130;28;20042;-76
2023/01/18 00:48:38;;;;;;;2.05;1.23;;;1.90;84.40;;;;;;5020300;28;20055;-75
2023/01/18 00:51:04;;;;;;;3.03;1.98;;;1.90;84.30;;;;;;5028317;28;20098;-76
2023/01/18 00:53:29;;;;;;;3.17;1.42;;;1.90;84.30;;;;;;5017273;28;20224;-76
2023/01/18 00:55:55;;;;;;;1.83;1.58;;;1.90;84.40;;;;;;5026389;28;20064;-75
2023/01/18 00:58:20;;;;;;;3.58;1.30;;;1.90;84.40;;;;;;5023689;28;20123;-76
2023/01/18 01:00:47;;;;;;;2.53;1.40;;;1.90;84.40;;;;;;5000737;28;20052;-75
2023/01/18 01:03:13;;;;;;;2.33;1.50;;;1.90;84.50;;;;;;5032200;28;20033;-76
2023/01/18 01:08:23;;;;;;;2.72;1.45;;;2.00;84.60;;;;;;5029217;28;20037;-76
2023/01/18 01:10:50;;;;;;;4.65;1.30;;;2.00;84.60;;;;;;5027135;28;20036;-77
2023/01/18 01:27:02;;;;;;;3.70;2.28;;;2.00;84.70;;;;;;5015682;28;20420;-76
2023/01/18 01:29:28;;;;;;;4.43;2.22;;;2.00;84.70;;;;;;5016901;28;20041;-77
2023/01/18 01:31:53;;;;;;;3.22;1.98;;;2.00;84.60;;;;;;5032668;28;20050;-77
2023/01/18 01:34:19;;;;;;;3.90;2.10;;;2.00;84.70;;;;;;5018618;28;20145;-76
2023/01/18 01:36:44;;;;;;;2.80;1.92;;;2.00;84.70;;;;;;5032548;28;20716;-76
2023/01/18 01:39:10;;;;;;;2.65;1.80;;;2.00;84.70;;;;;;5036831;28;20048;-75
2023/01/18 01:41:35;;;;;;;4.63;1.50;;;2.00;84.70;;;;;;5007435;28;20040;-76
2023/01/18 01:44:17;;;;;;;3.25;1.40;;;2.00;84.70;;;;;;5034211;28;20045;-77
2023/01/18 01:46:45;;;;;;;3.00;1.60;;;2.00;84.70;;;;;;5033515;28;20029;-76
2023/01/18 01:49:22;;;;;;;1.58;1.33;;;2.00;84.70;;;;;;5033115;28;20041;-76
2023/01/18 01:51:53;;;;;;;1.95;1.75;;;2.00;84.70;;;;;;5020545;28;20039;-77
2023/01/18 01:54:33;;;;;;;2.10;1.33;;;2.00;84.70;;;;;;5014338;28;20916;-76
2023/01/18 01:57:04;;;;;;;3.92;1.27;;;2.00;84.70;;;;;;5034223;28;20037;-75
2023/01/18 01:59:33;;;;;;;;;;;2.00;84.70;;;;;;5022097;28;20053;-76
2023/01/18 02:01:59;;;;;;;3.72;1.83;;;2.00;84.60;;;;;;5035505;28;19923;-77
2023/01/18 02:04:24;;;;;;;2.65;1.63;;;2.00;84.50;;;;;;5034131;28;20037;-77
2023/01/18 02:06:50;;;;;;;1.70;1.27;;;2.00;84.50;;;;;;5034567;28;20190;-75
2023/01/18 02:09:15;;;;;;;1.83;1.35;;;2.00;84.50;;;;;;5019514;28;20040;-76
2023/01/18 02:11:41;;;;;;;3.15;1.50;;;2.00;84.60;;;;;;5035614;28;20114;-75
2023/01/18 02:14:10;;;;;;;1.48;1.10;;;2.00;84.60;;;;;;4994946;28;20069;-77
2023/01/18 02:16:57;;;;;;;1.88;1.40;;;2.00;84.70;;;;;;5022389;28;20052;-77
2023/01/18 02:20:01;;;;;;;3.45;1.48;;;2.00;84.80;;;;;;5033267;28;20620;-77
2023/01/18 02:22:29;;;;;;;2.28;1.50;;;2.00;84.70;;;;;;5037604;28;20517;-77
2023/01/18 02:25:14;;;;;;;2.75;1.55;;;2.00;84.70;;;;;;5035784;28;20037;-76
2023/01/18 02:27:43;;;;;;;2.28;1.33;;;2.00;84.60;;;;;;5033959;28;20447;-78
2023/01/18 02:30:13;;;;;;;2.17;1.45;;;2.00;84.50;;;;;;5020612;28;20731;-76
2023/01/18 02:33:02;;;;;;;2.13;1.15;;;2.00;84.50;;;;;;5017910;28;20468;-77
2023/01/18 02:35:49;;;;;;;3.60;1.30;;;2.00;84.40;;;;;;5044752;28;20043;-78
2023/01/18 02:38:34;;;;;;;3.70;1.48;;;2.00;84.40;;;;;;5029089;28;20042;-77
2023/01/18 02:41:07;;;;;;;2.25;1.40;;;2.00;84.40;;;;;;5022715;28;20036;-77
2023/01/18 02:46:35;;;;;;;4.47;1.60;;;2.00;84.50;;;;;;5017448;28;20114;-76
2023/01/18 02:49:05;;;;;;;2.15;1.38;;;2.00;84.50;;;;;;5023543;28;20404;-76
2023/01/18 02:51:30;;;;;;;1.77;1.48;;;2.10;84.50;;;;;;5031995;28;20029;-77
2023/01/18 02:53:56;;;;;;;2.08;1.23;;;2.10;84.50;;;;;;4991558;28;20157;-76
2023/01/18 02:56:41;;;;;;;2.20;1.30;;;2.10;84.40;;;;;;5035357;28;20836;-76
2023/01/18 02:59:17;;;;;;;2.95;1.42;;;2.00;84.40;;;;;;5022257;28;20511;-75
2023/01/18 03:01:46;;;;;;;2.60;1.33;;;2.10;84.50;;;;;;5016990;28;20056;-77
2023/01/18 03:04:20;;;;;;;3.25;1.55;;;2.10;84.50;;;;;;5030502;28;20033;-76
2023/01/18 03:06:50;;;;;;;2.78;1.50;;;2.00;84.40;;;;;;5033420;28;20069;-76
2023/01/18 03:09:20;;;;;;;2.50;1.50;;;2.00;84.40;;;;;;5017332;28;20065;-77
2023/01/18 03:12:07;;;;;;;1.67;1.58;;;2.00;84.40;;;;;;5035867;28;20470;-76
2023/01/18 03:14:38;;;;;;;4.03;1.63;;;2.00;84.50;;;;;;5028347;28;20094;-75
2023/01/18 03:17:31;;;;;;;5.20;2.00;;;2.00;84.50;;;;;;5018207;28;20045;-75
2023/01/18 03:20:02;;;;;;;2.08;1.55;;;2.00;84.70;;;;;;5032618;28;20045;-76
2023/01/18 03:25:16;;;;;;;1.70;1.40;;;2.00;84.70;;;;;;5017668;28;20102;-75
2023/01/18 03:35:55;;;;;;;1.90;1.38;;;2.00;85.00;;;;;;5032960;28;20052;-75
2023/01/18 03:38:20;;;;;;;2.97;2.15;;;2.00;85.00;;;;;;5030462;28;20033;-77
2023/01/18 03:40:46;;;;;;;2.30;1.70;;;2.00;85.20;;;;;;5023413;28;20068;-76
2023/01/18 03:43:13;;;;;;;3.45;1.67;;;2.00;85.20;;;;;;5028758;28;20116;-74
2023/01/18 03:45:42;;;;;;;4.63;1.92;;;2.00;85.30;;;;;;4997541;28;20095;-77
2023/01/18 03:48:08;;;;;;;3.50;2.15;;;2.00;85.40;;;;;;5030153;28;20039;-76
2023/01/18 03:50:52;;;;;;;4.30;2.70;;;2.00;85.50;;;;;;5017882;28;20041;-74
2023/01/18 03:53:25;;;;;;;2.42;1.83;;;2.00;85.80;;;;;;5034744;28;20041;-76
2023/01/18 03:55:53;;;;;;;4.47;2.15;;;2.00;85.70;;;;;;5030135;28;20056;-76
2023/01/18 03:58:20;;;;;;;5.38;2.30;;;1.90;85.70;;;;;;5031474;28;20493;-76
2023/01/18 04:00:46;;;;;;;3.20;2.22;;;1.90;85.80;;;;;;5030321;28;20045;-75
2023/01/18 04:03:11;;;;;;;3.88;2.50;;;1.90;86.10;;;;;;5034825;28;20029;-76
2023/01/18 04:05:37;;;;;;;4.90;2.42;;;2.00;86.00;;;;;;5020804;28;20041;-78
2023/01/18 04:08:02;;;;;;;4.15;2.17;;;2.00;86.00;;;;;;5017966;28;20036;-78
2023/01/18 04:10:28;;;;;;;4.78;2.38;;;1.90;86.10;;;;;;5032989;28;20033;-78
2023/01/18 04:12:53;;;;;;;3.22;2.20;;;1.90;86.10;;;;;;5033410;28;20507;-75
2023/01/18 04:15:19;;;;;;;3.17;2.28;;;1.90;86.10;;;;;;5034536;28;20140;-76
2023/01/18 04:17:44;;;;;;;3.45;2.28;;;1.90;86.20;;;;;;5020971;28;20078;-75
2023/01/18 04:20:10;;;;;;;2.97;1.77;;;1.90;86.20;;;;;;5004282;28;20681;-75
2023/01/18 04:22:36;;;;;;;2.78;2.17;;;1.80;86.20;;;;;;5019771;28;20044;-77
2023/01/18 04:25:01;;;;;;;3.75;1.90;;;1.80;86.20;;;;;;5015205;28;20029;-78
2023/01/18 04:27:27;;;;;;;4.75;2.00;;;1.80;86.30;;;;;;5013294;28;20029;-79
2023/01/18 04:29:52;;;;;;;12.07;7.05;;;1.80;86.40;;;;;;5015647;28;20539;-79
2023/01/18 04:32:18;;;;;;;14.18;11.68;;;1.80;86.60;;;;;;5033542;28;20040;-79
2023/01/18 04:34:43;;;;;;;12.63;8.70;;;1.80;86.60;;;;;;5012903;28;20484;-77
2023/01/18 04:37:09;;;;;;;5.35;3.22;;;1.80;86.70;;;;;;5029370;28;20772;-78
2023/01/18 04:39:35;;;;;;;9.52;5.60;;;1.80;86.80;;;;;;5038435;28;20528;-79
2023/01/18 04:42:00;;;;;;;6.63;3.30;;;1.80;86.90;;;;;;5018857;28;20029;-78
2023/01/18 04:44:26;;;;;;;288.33;96.22;;;1.80;86.90;;;;;;5027301;28;20496;-78
2023/01/18 04:46:51;;;;;;;77.93;28.95;;;1.80;87.00;;;;;;5017554;28;20048;-80
2023/01/18 04:49:17;;;;;;;61.55;24.15;;;1.80;87.00;;;;;;5029555;28;20048;-79
2023/01/18 04:51:43;;;;;;;19.83;9.32;;;1.80;87.10;;;;;;5013048;28;20037;-78
2023/01/18 04:54:09;;;;;;;18.38;8.48;;;1.80;87.10;;;;;;5032442;28;20041;-77
2023/01/18 04:56:35;;;;;;;30.38;13.07;;;1.80;87.20;;;;;;5027253;28;20044;-76
2023/01/18 04:59:00;;;;;;;17.77;8.82;;;1.80;87.30;;;;;;5013021;28;20037;-76
2023/01/18 05:01:28;;;;;;;11.63;5.65;;;1.80;87.40;;;;;;5033115;28;20125;-77
2023/01/18 05:03:54;;;;;;;10.25;5.53;;;1.80;87.50;;;;;;5022683;28;20671;-77
2023/01/18 05:06:19;;;;;;;11.30;5.45;;;1.90;87.50;;;;;;5017206;28;20036;-77
2023/01/18 05:08:45;;;;;;;4.15;2.70;;;1.90;87.60;;;;;;5033159;28;20041;-77
2023/01/18 05:11:12;;;;;;;8.93;6.85;;;1.90;87.60;;;;;;5039152;28;20105;-76
2023/01/18 05:13:38;;;;;;;7.28;6.20;;;1.90;87.60;;;;;;5038150;28;20072;-76
2023/01/18 05:16:04;;;;;;;6.70;6.00;;;1.90;87.60;;;;;;5019667;28;20136;-77
2023/01/18 05:18:29;;;;;;;6.50;5.38;;;1.90;87.70;;;;;;5036680;28;20052;-77
2023/01/18 05:20:55;;;;;;;8.73;5.68;;;1.90;87.60;;;;;;5036508;28;20044;-77
2023/01/18 05:23:21;;;;;;;6.95;5.05;;;1.80;87.60;;;;;;5029502;28;20056;-78
2023/01/18 05:25:51;;;;;;;6.60;3.40;;;1.80;87.60;;;;;;5003106;28;20039;-77
2023/01/18 05:28:17;;;;;;;5.25;2.97;;;1.80;87.70;;;;;;5019719;28;20151;-77
2023/01/18 05:30:42;;;;;;;5.90;3.55;;;1.80;87.70;;;;;;5008244;28;20032;-77
2023/01/18 05:33:08;;;;;;;4.18;2.97;;;1.80;87.70;;;;;;5021311;28;20155;-77
2023/01/18 05:35:34;;;;;;;4.28;2.67;;;1.80;87.70;;;;;;5033609;28;21234;-77
2023/01/18 05:37:59;;;;;;;5.03;3.33;;;1.80;87.80;;;;;;5021194;28;20521;-78
2023/01/18 05:40:25;;;;;;;4.90;2.85;;;1.80;87.80;;;;;;5034761;28;20037;-76
2023/01/18 05:42:50;;;;;;;6.38;3.33;;;1.80;88.70;;;;;;5034257;28;20056;-76
2023/01/18 05:45:16;;;;;;;7.68;3.17;;;1.80;88.00;;;;;;4999770;28;20125;-76
2023/01/18 05:47:41;;;;;;;4.57;2.80;;;1.80;88.00;;;;;;5034169;28;20033;-77
2023/01/18 05:50:07;;;;;;;5.78;3.53;;;1.80;88.00;;;;;;5031400;28;20407;-76
2023/01/18 05:52:33;;;;;;;4.10;2.22;;;1.90;88.50;;;;;;5042535;28;20036;-76
2023/01/18 05:54:58;;;;;;;3.67;2.70;;;1.90;88.90;;;;;;5020642;28;21483;-77
2023/01/18 05:57:24;;;;;;;5.00;3.28;;;1.90;88.20;;;;;;5018484;28;20619;-78
2023/01/18 05:59:50;;;;;;;3.72;2.58;;;1.90;88.20;;;;;;5036111;28;20724;-76
2023/01/18 06:02:16;;;;;;;5.80;2.70;;;1.90;88.30;;;;;;5034187;28;20048;-76
2023/01/18 06:04:43;;;;;;;3.40;2.17;;;1.90;88.30;;;;;;5032444;28;20025;-77
2023/01/18 06:07:09;;;;;;;3.25;2.35;;;1.90;88.30;;;;;;5031053;28;20037;-77
2023/01/18 06:09:34;;;;;;;4.07;2.42;;;1.90;88.30;;;;;;5037022;28;20037;-76
2023/01/18 06:12:00;;;;;;;2.58;2.38;;;1.90;88.30;;;;;;5020965;28;20478;-76
2023/01/18 06:14:25;;;;;;;4.07;2.13;;;1.90;88.20;;;;;;5018892;28;20120;-76
2023/01/18 06:16:51;;;;;;;4.22;2.45;;;1.90;88.30;;;;;;5021581;28;20059;-76
2023/01/18 06:19:16;;;;;;;4.38;2.65;;;1.90;88.40;;;;;;5032604;28;20523;-76
2023/01/18 06:21:42;;;;;;;4.22;2.63;;;1.90;88.40;;;;;;5023974;28;20086;-76
2023/01/18 06:24:07;;;;;;;2.47;2.13;;;1.90;88.40;;;;;;5018104;28;20784;-75
2023/01/18 06:26:33;;;;;;;3.08;2.42;;;1.90;88.40;;;;;;5020499;28;20033;-76
2023/01/18 06:28:58;;;;;;;4.93;2.38;;;1.90;88.40;;;;;;5018747;28;20522;-75
2023/01/18 06:31:24;;;;;;;3.05;2.35;;;1.90;88.50;;;;;;5037765;28;20467;-75
2023/01/18 06:33:50;;;;;;;3.17;2.30;;;1.90;88.50;;;;;;5019618;28;20127;-77
2023/01/18 06:36:15;;;;;;;4.68;2.03;;;1.90;88.60;;;;;;5016440;28;20111;-77
2023/01/18 06:38:41;;;;;;;3.47;2.38;;;1.90;88.60;;;;;;5038180;28;20815;-75
2023/01/18 06:41:08;;;;;;;8.40;2.67;;;1.90;88.60;;;;;;5027009;28;20032;-76
2023/01/18 06:43:33;;;;;;;6.28;2.60;;;1.90;88.70;;;;;;5021246;28;20041;-77
2023/01/18 06:45:59;;;;;;;3.03;2.38;;;1.90;88.70;;;;;;5032121;28;20036;-77
2023/01/18 06:48:25;;;;;;;3.95;2.53;;;1.90;88.80;;;;;;5034874;28;20048;-76
2023/01/18 06:50:51;;;;;;;5.40;2.80;;;1.90;88.70;;;;;;5030743;28;20047;-76
2023/01/18 06:53:19;;;;;;;3.15;2.03;;;1.90;88.80;;;;;;5020153;28;20235;-76
2023/01/18 06:55:52;;;;;;;2.90;2.28;;;1.90;88.80;;;;;;5034088;28;20136;-76
2023/01/18 06:58:17;;;;;;;2.88;2.00;;;1.90;88.90;;;;;;5016862;28;20055;-76
2023/01/18 07:00:43;;;;;;;2.88;2.30;;;1.90;89.40;;;;;;5036644;28;20042;-76
2023/01/18 07:03:09;;;;;;;4.38;2.20;;;1.90;88.90;;;;;;5032840;28;20083;-78
2023/01/18 07:05:35;;;;;;;3.70;2.67;;;1.90;88.90;;;;;;5037051;28;20036;-77
2023/01/18 07:08:00;;;;;;;5.20;2.38;;;1.90;88.90;;;;;;5041690;28;20036;-76
2023/01/18 07:10:26;;;;;;;3.28;2.55;;;1.90;88.90;;;;;;5036436;28;20523;-77
2023/01/18 07:12:51;;;;;;;3.47;2.58;;;1.90;88.90;;;;;;5037972;28;20094;-75
2023/01/18 07:15:17;;;;;;;3.65;2.67;;;1.90;88.90;;;;;;5035131;28;20045;-77
2023/01/18 07:17:43;;;;;;;6.85;2.17;;;1.90;88.90;;;;;;5034939;28;20052;-76
2023/01/18 07:20:10;;;;;;;3.38;2.47;;;1.90;88.90;;;;;;5033155;28;20099;-77
2023/01/18 07:22:36;;;;;;;3.78;2.55;;;1.90;89.00;;;;;;4975413;28;20056;-76
2023/01/18 07:25:01;;;;;;;4.55;2.42;;;1.90;89.10;;;;;;5020298;28;20116;-77
2023/01/18 07:27:27;;;;;;;4.22;2.72;;;1.90;89.90;;;;;;5038963;28;20041;-77
2023/01/18 07:29:54;;;;;;;4.28;2.75;;;1.90;89.20;;;;;;5036802;28;20674;-76
2023/01/18 07:32:19;;;;;;;4.57;2.85;;;1.90;89.20;;;;;;5020300;28;20029;-77
2023/01/18 07:34:45;;;;;;;4.22;2.80;;;1.90;89.20;;;;;;5016305;28;20041;-76
2023/01/18 07:37:10;;;;;;;4.35;3.00;;;2.00;89.30;;;;;;5019986;28;20037;-75
2023/01/18 07:39:36;;;;;;;5.90;3.47;;;2.00;89.30;;;;;;5003998;28;20040;-77
2023/01/18 07:42:02;;;;;;;6.05;3.53;;;2.00;89.30;;;;;;5018993;28;20120;-76
2023/01/18 07:44:28;;;;;;;7.15;3.72;;;2.00;89.30;;;;;;5035544;28;20047;-77
2023/01/18 07:46:54;;;;;;;5.78;3.60;;;2.00;89.40;;;;;;5026511;28;20442;-77
2023/01/18 07:49:19;;;;;;;7.03;3.53;;;2.10;89.50;;;;;;5031212;28;20044;-75
2023/01/18 07:51:45;;;;;;;8.48;4.57;;;2.00;89.30;;;;;;5014318;28;20045;-77
2023/01/18 07:54:10;;;;;;;6.97;4.53;;;2.00;89.30;;;;;;5033954;28;20040;-77
2023/01/18 07:56:36;;;;;;;5.18;3.45;;;2.10;89.30;;;;;;5031261;28;20110;-75
2023/01/18 07:59:02;;;;;;;8.05;3.28;;;2.10;89.30;;;;;;5019435;28;20090;-77
2023/01/18 08:01:27;;;;;;;6.13;3.97;;;2.10;89.30;;;;;;5017343;28;20060;-76
2023/01/18 08:03:53;;;;;;;7.70;4.93;;;2.10;89.30;;;;;;5021895;28;20040;-77
2023/01/18 08:06:21;;;;;;;6.28;4.28;;;2.10;89.30;;;;;;5033329;28;20044;-78
2023/01/18 08:08:46;;;;;;;9.63;4.90;;;2.10;89.40;;;;;;5034705;28;20037;-77
2023/01/18 08:11:12;;;;;;;11.13;4.82;;;2.10;89.30;;;;;;5033381;28;20033;-76
2023/01/18 08:13:37;;;;;;;7.82;4.82;;;2.20;89.40;;;;;;5032501;28;20090;-77
2023/01/18 08:16:05;;;;;;;8.68;4.45;;;2.10;89.30;;;;;;5010811;28;20322;-78
2023/01/18 08:18:30;;;;;;;17.48;7.93;;;2.20;89.40;;;;;;5016294;28;20075;-77
2023/01/18 08:20:56;;;;;;;18.17;7.75;;;2.20;89.40;;;;;;5029264;28;20112;-76
2023/01/18 08:23:21;;;;;;;14.00;7.22;;;2.20;89.40;;;;;;5036889;28;20120;-77
2023/01/18 08:25:47;;;;;;;16.15;7.90;;;2.20;89.40;;;;;;5030696;28;20052;-77
2023/01/18 08:28:13;;;;;;;16.40;10.00;;;2.20;89.40;;;;;;5029551;28;20056;-76
2023/01/18 08:30:40;;;;;;;15.57;8.05;;;2.20;89.40;;;;;;5004868;28;20036;-76
2023/01/18 08:33:06;;;;;;;18.23;8.73;;;2.20;89.40;;;;;;5034121;28;20036;-77
2023/01/18 08:35:33;;;;;;;8.50;5.65;;;2.20;89.40;;;;;;4999618;28;20423;-76
2023/01/18 08:37:59;;;;;;;12.15;6.95;;;2.20;89.40;;;;;;5030438;28;20041;-77
2023/01/18 08:40:25;;;;;;;19.95;10.73;;;2.20;89.30;;;;;;5018504;28;20033;-76
2023/01/18 08:42:56;;;;;;;13.05;7.72;;;2.20;89.40;;;;;;5024230;28;20499;-76
2023/01/18 08:45:21;;;;;;;12.13;7.97;;;2.20;89.40;;;;;;5035389;28;20033;-77
2023/01/18 08:47:47;;;;;;;13.82;8.13;;;2.20;89.40;;;;;;5039312;28;20053;-77
2023/01/18 08:50:12;;;;;;;10.90;7.20;;;2.20;89.40;;;;;;5020487;28;20040;-76
2023/01/18 08:52:38;;;;;;;12.45;6.78;;;2.20;89.50;;;;;;5016011;28;20493;-76
2023/01/18 08:55:04;;;;;;;9.40;6.45;;;2.20;89.50;;;;;;5030286;28;20076;-74
2023/01/18 08:57:29;;;;;;;8.55;5.85;;;2.20;89.50;;;;;;5013922;28;20087;-76
2023/01/18 08:59:55;;;;;;;10.32;6.30;;;2.20;89.50;;;;;;5020960;28;20064;-76
2023/01/18 09:02:22;;;;;;;9.07;5.03;;;2.20;89.50;;;;;;5012155;28;20060;-78
2023/01/18 09:04:47;;;;;;;7.28;5.38;;;2.20;89.60;;;;;;5031939;28;20162;-76
2023/01/18 09:07:16;;;;;;;7.78;5.82;;;2.20;89.60;;;;;;5039087;28;20040;-77
2023/01/18 09:09:41;;;;;;;7.90;5.35;;;2.30;89.60;;;;;;5026432;28;20049;-77
2023/01/18 09:12:07;;;;;;;6.20;4.60;;;2.30;89.60;;;;;;5036868;28;20074;-76
2023/01/18 09:14:33;;;;;;;8.60;5.00;;;2.30;89.60;;;;;;5033336;28;20061;-77
2023/01/18 09:16:58;;;;;;;10.73;5.90;;;2.30;89.60;;;;;;5033731;28;20049;-76
2023/01/18 09:19:24;;;;;;;9.90;5.80;;;2.30;89.60;;;;;;5017953;28;21465;-76
2023/01/18 09:21:50;;;;;;;9.38;5.45;;;2.40;89.70;;;;;;5041073;28;20628;-77
2023/01/18 09:24:16;;;;;;;7.30;4.78;;;2.40;89.70;;;;;;5033284;28;20235;-76
2023/01/18 09:26:41;;;;;;;7.95;4.70;;;2.40;90.20;;;;;;5036987;28;20045;-77
2023/01/18 09:29:07;;;;;;;7.85;5.38;;;2.40;89.70;;;;;;5042655;28;20036;-77
2023/01/18 09:31:32;;;;;;;10.18;5.63;;;2.40;89.80;;;;;;5022780;28;20044;-77
2023/01/18 09:33:58;;;;;;;9.68;4.93;;;2.50;89.80;;;;;;5034096;28;20085;-78
2023/01/18 09:36:25;;;;;;;10.57;5.85;;;2.40;89.70;;;;;;5030794;28;20784;-78
2023/01/18 09:38:51;;;;;;;15.95;7.93;;;2.50;89.80;;;;;;5035721;28;20784;-77
2023/01/18 09:41:34;;;;;;;12.00;6.43;;;2.50;89.70;;;;;;5033294;28;20094;-76
2023/01/18 09:44:04;;;;;;;7.65;5.53;;;2.50;89.90;;;;;;5026628;28;20045;-76
2023/01/18 09:46:32;;;;;;;11.38;6.60;;;2.50;89.70;;;;;;5020325;28;20115;-78
2023/01/18 09:48:59;;;;;;;8.38;5.53;;;2.60;89.80;;;;;;5016278;28;20038;-77
2023/01/18 09:51:31;;;;;;;12.32;5.95;;;2.60;89.80;;;;;;5033944;28;20356;-79
2023/01/18 09:54:03;;;;;;;10.95;6.53;;;2.60;89.80;;;;;;4998382;28;20040;-78
2023/01/18 09:56:48;;;;;;;7.15;4.75;;;2.60;89.80;;;;;;5018742;28;20045;-79
2023/01/18 09:59:20;;;;;;;6.30;4.10;;;2.70;89.90;;;;;;5034034;28;20068;-76
2023/01/18 10:01:46;;;;;;;5.97;3.97;;;2.70;89.80;;;;;;5007766;28;20766;-76
2023/01/18 10:04:31;;;;;;;8.75;4.63;;;2.70;89.70;;;;;;5007553;28;20127;-77
2023/01/18 10:07:07;;;;;;;7.20;4.25;;;2.70;90.10;;;;;;5013281;28;20095;-77
2023/01/18 10:09:40;;;;;;;6.45;4.43;;;2.70;89.70;;;;;;5036297;28;20033;-77
2023/01/18 10:12:30;;;;;;;5.60;3.30;;;2.70;89.70;;;;;;5001072;28;20045;-77
2023/01/18 10:15:00;;;;;;;6.35;3.33;;;2.70;89.70;;;;;;5033641;28;20140;-78
2023/01/18 10:17:32;;;;;;;6.72;3.78;;;2.70;89.70;;;;;;5016399;28;20040;-77
2023/01/18 10:20:00;;;;;;;7.47;3.55;;;2.70;89.70;;;;;;5036180;28;20120;-79
2023/01/18 10:22:31;;;;;;;5.65;3.30;;;2.70;89.60;;;;;;5035577;28;20056;-77
2023/01/18 10:24:58;;;;;;;;;;;2.80;89.70;;;;;;5014521;28;20662;-75
2023/01/18 10:27:30;;;;;;;6.88;4.15;;;2.80;89.70;;;;;;5036335;28;20305;-77
2023/01/18 10:30:25;;;;;;;5.75;3.75;;;2.80;89.60;;;;;;5035797;28;20498;-78
2023/01/18 10:33:01;;;;;;;5.47;3.85;;;2.80;89.90;;;;;;5015310;28;20400;-78
2023/01/18 10:35:33;;;;;;;7.35;4.75;;;2.80;89.80;;;;;;5014761;28;20474;-76
2023/01/18 10:38:02;;;;;;;5.93;4.05;;;2.80;89.80;;;;;;5032974;28;20115;-78
2023/01/18 10:40:28;;;;;;;6.85;4.13;;;2.90;89.90;;;;;;4999489;28;20091;-78
2023/01/18 10:42:55;;;;;;;5.47;4.20;;;2.90;89.90;;;;;;5028255;28;20037;-76
2023/01/18 10:45:24;;;;;;;6.50;3.30;;;2.90;89.80;;;;;;5032051;28;20037;-78
2023/01/18 10:47:50;;;;;;;6.47;4.30;;;3.00;89.80;;;;;;5034734;28;20170;-78
2023/01/18 10:50:36;;;;;;;9.48;4.20;;;3.00;89.80;;;;;;5019431;28;20032;-79
2023/01/18 10:53:26;;;;;;;8.20;4.82;;;3.00;89.80;;;;;;5031363;28;20473;-79
2023/01/18 10:56:01;;;;;;;5.35;4.05;;;3.00;89.80;;;;;;5015446;28;20033;-78
2023/01/18 10:58:30;;;;;;;7.07;3.90;;;3.00;89.60;;;;;;5033107;28;20040;-78
2023/01/18 11:00:56;;;;;;;7.30;3.72;;;3.00;89.70;;;;;;5034766;28;20029;-77
2023/01/18 11:03:23;;;;;;;6.57;3.60;;;3.10;89.60;;;;;;5016384;28;20037;-77
2023/01/18 11:05:48;;;;;;;18.35;8.02;;;3.10;89.60;;;;;;5028130;28;20037;-78
2023/01/18 11:08:24;;;;;;;13.35;6.40;;;3.20;89.70;;;;;;5001760;28;20060;-76
2023/01/18 11:10:57;;;;;;;8.23;4.43;;;3.20;89.60;;;;;;5036811;28;20043;-78
2023/01/18 11:13:24;;;;;;;20.10;8.73;;;3.20;89.60;;;;;;5014710;28;20703;-78
2023/01/18 11:16:14;;;;;;;6.18;3.75;;;3.20;89.60;;;;;;5031581;28;21395;-78
2023/01/18 11:18:56;;;;;;;8.45;4.97;;;3.20;89.50;;;;;;5031061;28;20029;-77
2023/01/18 11:21:23;;;;;;;21.27;8.00;;;3.20;89.40;;;;;;5033128;28;20115;-78
2023/01/18 11:23:50;;;;;;;9.57;5.18;;;3.20;89.40;;;;;;5020096;28;20685;-77
2023/01/18 11:26:17;;;;;;;13.95;6.45;;;3.30;89.40;;;;;;5033552;28;20532;-78
2023/01/18 11:28:59;;;;;;;12.40;5.90;;;3.30;89.40;;;;;;5019908;28;20033;-78
2023/01/18 11:31:26;;;;;;;27.35;10.70;;;3.30;89.50;;;;;;5014525;28;20036;-78
2023/01/18 11:34:02;;;;;;;34.92;11.60;;;3.30;89.40;;;;;;5014738;28;20102;-78
2023/01/18 11:36:41;;;;;;;27.25;10.90;;;3.30;89.40;;;;;;5015531;28;20032;-77
2023/01/18 11:39:17;;;;;;;15.82;6.57;;;3.30;89.40;;;;;;5014996;28;20127;-78
2023/01/18 11:41:42;;;;;;;104.60;30.58;;;3.30;89.40;;;;;;5031270;28;20037;-77
2023/01/18 11:44:28;;;;;;;43.17;14.00;;;3.30;89.40;;;;;;5017394;28;20107;-78
2023/01/18 11:46:55;;;;;;;22.45;8.88;;;3.30;89.50;;;;;;5015836;28;20028;-78
2023/01/18 11:49:30;;;;;;;29.85;9.52;;;3.30;89.40;;;;;;5015253;28;20041;-77
2023/01/18 11:52:01;;;;;;;25.58;9.32;;;3.30;89.40;;;;;;5016586;28;20045;-78
2023/01/18 11:54:32;;;;;;;19.05;7.57;;;3.30;89.40;;;;;;5012921;28;20030;-79
2023/01/18 11:56:58;;;;;;;23.92;7.60;;;3.40;89.40;;;;;;5032251;28;20064;-78
2023/01/18 11:59:24;;;;;;;13.05;6.80;;;3.30;89.30;;;;;;5018727;28;20397;-77
2023/01/18 12:01:55;;;;;;;9.18;5.28;;;3.30;89.30;;;;;;5036789;28;20044;-78
2023/01/18 12:04:55;;;;;;;10.07;6.07;;;3.30;89.30;;;;;;5028902;28;20029;-77
2023/01/18 12:07:31;;;;;;;14.00;8.70;;;3.30;89.30;;;;;;5033864;28;20045;-79
2023/01/18 12:09:59;;;;;;;14.43;6.05;;;3.30;89.20;;;;;;5013308;28;20040;-77
2023/01/18 12:12:59;;;;;;;13.30;6.00;;;3.30;89.20;;;;;;5031918;28;20040;-77
2023/01/18 12:15:40;;;;;;;7.38;5.57;;;3.30;89.20;;;;;;5029334;28;21550;-77
2023/01/18 12:18:11;;;;;;;;;;;3.20;89.10;;;;;;5035691;28;20094;-76
2023/01/18 12:20:48;;;;;;;12.82;5.38;;;3.20;89.10;;;;;;5031507;28;19916;-79
2023/01/18 12:23:30;;;;;;;10.55;6.28;;;3.20;89.10;;;;;;5034753;28;20468;-79
2023/01/18 12:26:00;;;;;;;;;;;3.20;89.10;;;;;;5033159;28;20036;-79
2023/01/18 12:28:32;;;;;;;6.85;4.72;;;3.20;89.10;;;;;;5029007;28;19921;-77
2023/01/18 12:31:12;;;;;;;6.55;4.57;;;3.20;89.00;;;;;;5032995;28;20047;-80
2023/01/18 12:34:00;;;;;;;6.38;3.90;;;3.20;89.20;;;;;;5031793;28;20546;-80
2023/01/18 12:36:40;;;;;;;7.22;4.90;;;3.20;89.10;;;;;;5034027;28;20553;-77
2023/01/18 12:39:45;;;;;;;8.13;4.05;;;3.20;89.10;;;;;;5032392;28;20029;-79
2023/01/18 12:42:13;;;;;;;6.55;4.20;;;3.20;89.10;;;;;;5033989;28;20041;-77
2023/01/18 12:45:05;;;;;;;8.38;3.53;;;3.20;89.10;;;;;;5029932;28;20090;-79
2023/01/18 12:47:35;;;;;;;5.95;3.30;;;3.20;89.10;;;;;;5032160;28;20033;-78
2023/01/18 12:50:04;;;;;;;6.30;3.92;;;3.20;89.10;;;;;;5013037;28;20091;-78
2023/01/18 12:52:32;;;;;;;6.28;4.45;;;3.20;89.10;;;;;;5030991;28;20063;-79
2023/01/18 12:54:59;;;;;;;3.70;2.80;;;3.30;89.20;;;;;;5018984;28;20037;-78
2023/01/18 12:57:25;;;;;;;5.07;3.42;;;3.30;89.20;;;;;;5013608;28;20140;-78
2023/01/18 13:00:14;;;;;;;7.72;3.70;;;3.30;89.20;;;;;;5016925;28;20395;-79
2023/01/18 13:02:40;;;;;;;5.15;3.50;;;3.30;89.20;;;;;;5033895;28;20052;-79
2023/01/18 13:05:32;;;;;;;5.65;3.42;;;3.30;89.10;;;;;;5033158;28;20442;-77
2023/01/18 13:08:13;;;;;;;5.53;3.45;;;3.40;89.30;;;;;;5022665;28;20043;-76
2023/01/18 13:10:38;;;;;;;8.43;4.60;;;3.40;89.20;;;;;;5010962;28;20037;-79
2023/01/18 13:13:04;;;;;;;7.72;4.65;;;3.40;89.20;;;;;;5004044;28;20040;-78
2023/01/18 13:15:46;;;;;;;9.90;5.38;;;3.40;89.20;;;;;;5018085;28;20718;-77
2023/01/18 13:18:20;;;;;;;10.27;5.50;;;3.30;89.10;;;;;;4989244;28;20029;-78
2023/01/18 13:21:12;;;;;;;8.65;4.35;;;3.40;89.20;;;;;;5032880;28;20040;-78
2023/01/18 13:24:03;;;;;;;9.98;4.50;;;3.40;89.30;;;;;;5031527;28;20026;-78
2023/01/18 13:26:32;;;;;;;11.13;5.65;;;3.40;89.30;;;;;;5027134;28;20078;-78
2023/01/18 13:29:22;;;;;;;14.82;6.97;;;3.40;89.20;;;;;;5016306;28;20136;-79
2023/01/18 13:31:48;;;;;;;9.73;5.25;;;3.40;89.30;;;;;;5003958;28;20435;-80
2023/01/18 13:34:35;;;;;;;8.45;4.80;;;3.40;90.00;;;;;;5020190;28;20127;-78
2023/01/18 13:37:03;;;;;;;8.52;4.82;;;3.40;89.20;;;;;;5038633;28;20740;-79
2023/01/18 13:39:30;;;;;;;9.80;5.30;;;3.30;89.20;;;;;;5020804;28;20049;-78